Overview Statistics Trail Chart Weather Telemetry Raw packets
 

This is the latest recevied weather packets stored in our database for station/object KO4DYK. If no packets are shown the sender has not sent any weather packets the latest 10 day(s).

<< 2 3 4 5 6 7 8 >>
Time Temp. Humidity Pressure Rain* Wind** Luminosity Snow
1788639712 38.89° C 42% 1013.2 hPa 0 mm - 591 W/m² -
1788639408 38.89° C 42% 1013 hPa 0 mm - 588 W/m² -
1788639107 38.89° C 41% 1013.2 hPa 0 mm - 599 W/m² -
1788638802 40.56° C 41% 1013.2 hPa 0 mm - 591 W/m² -
1788638498 40° C 40% 1013.3 hPa 0 mm - 589 W/m² -
1788638196 40° C 40% 1013.6 hPa 0 mm - 583 W/m² -
1788637891 41.67° C 39% 1013.7 hPa 0 mm - 167 W/m² -
1788637586 40.56° C 40% 1013.6 hPa 0 mm - 642 W/m² -
1788637285 39.44° C 42% 1013.8 hPa 0 mm - 590 W/m² -
1788636988 40.56° C 39% 1013.8 hPa 0 mm - 632 W/m² -
1788636675 39.44° C 40% 1013.8 hPa 0 mm - 665 W/m² -
1788636371 40.56° C 39% 1014.2 hPa 0 mm - 653 W/m² -
1788636068 40° C 40% 1014.2 hPa 0 mm - 642 W/m² -
1788635766 39.44° C 41% 1014.1 hPa 0 mm - 623 W/m² -
1788635465 37.78° C 44% 1014.1 hPa 0 mm - 689 W/m² -
1788635163 39.44° C 43% 1014.3 hPa 0 mm - 665 W/m² -
1788634862 39.44° C 42% 1014.2 hPa 0 mm - 656 W/m² -
1788634561 40° C 42% 1014.4 hPa 0 mm - 648 W/m² -
1788634256 40.56° C 41% 1014.4 hPa 0 mm - 667 W/m² -
1788633951 40° C 42% 1014.5 hPa 0 mm - 644 W/m² -
1788633650 39.44° C 42% 1014.7 hPa 0 mm - 635 W/m² -
1788633349 38.89° C 43% 1014.4 hPa 0 mm - 617 W/m² -
1788633045 40° C 42% 1015 hPa 0 mm - 636 W/m² -
1788632738 40° C 42% 1014.6 hPa 0 mm - 645 W/m² -
1788632433 40° C 43% 1014.5 hPa 0 mm - 699 W/m² -

* Rain latest hour (hover to see other rain measurements)
** Current wind speed in m/s (hover to see current wind gust speed)